createdAt,value
2017-09-30T00:00:12.230Z,20.89
2017-09-30T00:00:52.776Z,20.92
2017-09-30T00:01:33.322Z,20.88
2017-09-30T00:02:14.101Z,20.87
2017-09-30T00:02:54.810Z,20.87
2017-09-30T00:03:35.308Z,20.85
2017-09-30T00:04:15.978Z,20.87
2017-09-30T00:04:56.438Z,20.8
2017-09-30T00:05:37.024Z,20.87
2017-09-30T00:06:17.578Z,20.87
2017-09-30T00:06:58.234Z,20.89
2017-09-30T00:07:38.847Z,20.85
2017-09-30T00:08:19.564Z,20.92
2017-09-30T00:09:00.272Z,20.95
2017-09-30T00:09:40.938Z,20.91
2017-09-30T00:10:22.077Z,20.91
2017-09-30T00:11:03.450Z,20.97
2017-09-30T00:11:45.963Z,20.95
2017-09-30T00:12:26.589Z,20.87
2017-09-30T00:13:07.193Z,20.95
2017-09-30T00:13:47.861Z,20.94
2017-09-30T00:14:28.397Z,20.99
2017-09-30T00:15:08.971Z,20.89
2017-09-30T00:15:49.567Z,20.87
2017-09-30T00:16:30.172Z,20.89
2017-09-30T00:17:10.758Z,20.89
2017-09-30T00:17:51.357Z,20.87
2017-09-30T00:18:31.960Z,20.89
2017-09-30T00:19:12.596Z,20.89
2017-09-30T00:19:53.178Z,20.84
2017-09-30T00:20:33.708Z,20.84
2017-09-30T00:21:14.355Z,20.85
2017-09-30T00:21:54.932Z,20.87
2017-09-30T00:23:44.322Z,20.89
2017-09-30T00:24:25.865Z,20.87
2017-09-30T00:25:06.433Z,20.94
2017-09-30T00:25:46.953Z,20.88
2017-09-30T00:26:27.514Z,20.91
2017-09-30T00:27:08.180Z,20.88
2017-09-30T00:27:48.797Z,20.8
2017-09-30T00:28:29.284Z,20.72
2017-09-30T00:29:09.901Z,20.84
2017-09-30T00:29:50.350Z,20.84
2017-09-30T00:30:30.910Z,20.84
2017-09-30T00:31:11.449Z,20.69
2017-09-30T00:31:52.054Z,20.74
2017-09-30T00:32:32.604Z,20.72
2017-09-30T00:33:13.184Z,20.8
2017-09-30T00:33:53.729Z,20.73
2017-09-30T00:34:34.417Z,20.8
2017-09-30T00:35:14.904Z,20.84
2017-09-30T00:35:55.403Z,20.82
2017-09-30T00:36:35.989Z,20.85
2017-09-30T00:37:16.553Z,20.84
2017-09-30T00:37:57.163Z,20.67
2017-09-30T00:38:37.705Z,20.76
2017-09-30T00:39:18.256Z,20.69
2017-09-30T00:39:58.835Z,20.7
2017-09-30T00:40:39.351Z,20.74
2017-09-30T00:41:19.918Z,20.72
2017-09-30T00:42:00.445Z,20.77
2017-09-30T00:42:41.000Z,20.8
2017-09-30T00:43:21.570Z,20.7
2017-09-30T00:44:02.118Z,20.84
2017-09-30T00:44:42.664Z,20.84
2017-09-30T00:45:23.220Z,20.74
2017-09-30T00:46:06.734Z,20.61
2017-09-30T00:46:47.303Z,20.54
2017-09-30T00:47:27.943Z,20.55
2017-09-30T00:48:08.400Z,20.62
2017-09-30T00:48:49.049Z,20.52
2017-09-30T00:49:29.629Z,20.59
2017-09-30T00:50:10.184Z,20.58
2017-09-30T00:50:50.771Z,20.57
2017-09-30T00:51:31.258Z,20.58
2017-09-30T00:52:11.830Z,20.58
2017-09-30T00:52:52.399Z,20.55
2017-09-30T00:53:33.299Z,20.55
2017-09-30T00:54:13.896Z,20.62
2017-09-30T00:54:54.829Z,20.54
2017-09-30T00:55:35.666Z,20.69
2017-09-30T00:56:16.215Z,20.62
2017-09-30T00:56:56.774Z,20.64
2017-09-30T00:57:37.369Z,20.64
2017-09-30T00:58:17.827Z,20.62
2017-09-30T00:58:58.356Z,20.7
2017-09-30T00:59:38.938Z,20.69
2017-09-30T01:00:19.445Z,20.73
2017-09-30T01:01:00.076Z,20.7
2017-09-30T01:01:40.527Z,20.73
2017-09-30T01:02:21.089Z,20.57
2017-09-30T01:03:01.615Z,20.58
2017-09-30T01:03:42.133Z,20.73
2017-09-30T01:04:22.668Z,20.66
2017-09-30T01:05:03.214Z,20.73
2017-09-30T01:05:43.762Z,20.61
2017-09-30T01:06:24.387Z,20.57
2017-09-30T01:07:04.896Z,20.55
2017-09-30T01:07:45.395Z,20.58
2017-09-30T01:08:25.975Z,20.58
2017-09-30T01:09:06.491Z,20.57
2017-09-30T01:09:47.040Z,20.58
2017-09-30T01:10:27.588Z,20.61
2017-09-30T01:11:08.159Z,20.58
2017-09-30T01:11:48.700Z,20.58
2017-09-30T01:12:29.245Z,20.57
2017-09-30T01:13:09.771Z,20.48
2017-09-30T01:13:50.284Z,20.55
2017-09-30T01:14:30.826Z,20.59
2017-09-30T01:15:11.443Z,20.48
2017-09-30T01:15:51.904Z,20.5
2017-09-30T01:16:32.455Z,20.55
2017-09-30T01:17:13.178Z,20.48
2017-09-30T01:17:53.679Z,20.57
2017-09-30T01:18:34.254Z,20.58
2017-09-30T01:19:14.767Z,20.52
2017-09-30T01:19:55.318Z,20.57
2017-09-30T01:20:35.925Z,20.54
2017-09-30T01:21:16.413Z,20.43
2017-09-30T01:21:56.915Z,20.57
2017-09-30T01:22:37.452Z,20.57
2017-09-30T01:23:17.992Z,20.57
2017-09-30T01:23:58.577Z,20.51
2017-09-30T01:24:39.077Z,20.5
2017-09-30T01:25:19.604Z,20.5
2017-09-30T01:26:00.159Z,20.52
2017-09-30T01:26:40.693Z,20.62
2017-09-30T01:27:21.273Z,20.57
2017-09-30T01:28:01.842Z,20.59
2017-09-30T01:28:42.388Z,20.58
2017-09-30T01:29:22.946Z,20.57
2017-09-30T01:30:03.468Z,20.58
2017-09-30T01:30:43.969Z,20.52
2017-09-30T01:31:24.512Z,20.42
2017-09-30T01:32:05.092Z,20.52
2017-09-30T01:32:45.624Z,20.43
2017-09-30T01:33:26.156Z,20.51
2017-09-30T01:34:06.682Z,20.47
2017-09-30T01:34:47.251Z,20.48
2017-09-30T01:35:27.793Z,20.47
2017-09-30T01:36:08.340Z,20.47
2017-09-30T01:36:48.907Z,20.48
2017-09-30T01:37:29.444Z,20.35
2017-09-30T01:38:09.955Z,20.35
2017-09-30T01:38:50.476Z,20.47
2017-09-30T01:39:31.012Z,20.43
2017-09-30T01:40:11.576Z,20.48
2017-09-30T01:40:52.131Z,20.5
2017-09-30T01:41:32.632Z,20.48
2017-09-30T01:42:13.180Z,20.54
2017-09-30T01:42:53.803Z,20.42
2017-09-30T01:43:34.345Z,20.48
2017-09-30T01:44:14.925Z,20.42
2017-09-30T01:44:55.481Z,20.51
2017-09-30T01:45:36.027Z,20.48
2017-09-30T01:46:16.561Z,20.43
2017-09-30T01:46:57.196Z,20.55
2017-09-30T01:47:37.899Z,20.47
2017-09-30T01:48:18.560Z,20.5
2017-09-30T01:48:58.999Z,20.41
2017-09-30T01:49:39.525Z,20.55
2017-09-30T01:50:20.037Z,20.36
2017-09-30T01:51:00.670Z,20.48
2017-09-30T01:51:41.289Z,20.48
2017-09-30T01:52:21.867Z,20.41
2017-09-30T01:53:02.405Z,20.39
2017-09-30T01:53:42.958Z,20.42
2017-09-30T01:54:23.558Z,20.43
2017-09-30T01:55:04.121Z,20.47
2017-09-30T01:55:44.654Z,20.41
2017-09-30T01:56:25.213Z,20.39
2017-09-30T01:57:05.781Z,20.42
2017-09-30T01:57:46.988Z,20.38
2017-09-30T01:58:27.639Z,20.43
2017-09-30T01:59:08.185Z,20.35
2017-09-30T01:59:48.758Z,20.41
2017-09-30T02:00:29.289Z,20.42
2017-09-30T02:01:09.866Z,20.31
2017-09-30T02:01:50.450Z,20.32
2017-09-30T02:02:31.002Z,20.35
2017-09-30T02:03:11.481Z,20.31
2017-09-30T02:03:52.034Z,20.33
2017-09-30T02:04:32.625Z,20.36
2017-09-30T02:05:13.176Z,20.33
2017-09-30T02:05:53.756Z,20.35
2017-09-30T02:06:34.259Z,20.35
2017-09-30T02:07:14.863Z,20.35
2017-09-30T02:09:28.571Z,20.41
2017-09-30T02:10:09.817Z,20.35
2017-09-30T02:10:50.361Z,20.32
2017-09-30T02:11:30.889Z,20.39
2017-09-30T02:12:11.407Z,20.33
2017-09-30T02:12:51.927Z,20.39
2017-09-30T02:13:32.493Z,20.29
2017-09-30T02:14:13.064Z,20.32
2017-09-30T02:14:53.582Z,20.36
2017-09-30T02:15:34.169Z,20.33
2017-09-30T02:16:15.632Z,20.41
2017-09-30T02:16:56.033Z,20.36
2017-09-30T02:17:36.525Z,20.36
2017-09-30T02:18:17.263Z,20.35
2017-09-30T02:18:57.837Z,20.35
2017-09-30T02:19:38.301Z,20.33
2017-09-30T02:20:18.982Z,20.39
2017-09-30T02:20:59.904Z,20.38
2017-09-30T02:21:40.438Z,20.35
2017-09-30T02:22:21.008Z,20.33
2017-09-30T02:23:01.624Z,20.32
2017-09-30T02:23:42.159Z,20.32
2017-09-30T02:24:22.721Z,20.33
2017-09-30T02:25:03.262Z,20.36
2017-09-30T02:25:43.801Z,20.31
2017-09-30T02:26:24.385Z,20.32
2017-09-30T02:27:04.935Z,20.39
2017-09-30T02:27:45.574Z,20.31
2017-09-30T02:28:26.150Z,20.33
2017-09-30T02:29:06.695Z,20.38
2017-09-30T02:29:47.321Z,20.39
2017-09-30T02:30:27.869Z,20.32
2017-09-30T02:31:08.381Z,20.31
2017-09-30T02:31:48.896Z,20.33
2017-09-30T02:32:29.532Z,20.24
2017-09-30T02:33:10.051Z,20.28
2017-09-30T02:33:50.604Z,20.32
2017-09-30T02:34:31.228Z,20.33
2017-09-30T02:35:11.771Z,20.39
2017-09-30T02:35:52.428Z,20.35
2017-09-30T02:36:33.044Z,20.32
2017-09-30T02:37:13.710Z,20.35
2017-09-30T02:37:54.208Z,20.38
2017-09-30T02:38:34.812Z,20.29
2017-09-30T02:39:15.362Z,20.26
2017-09-30T02:39:55.888Z,20.24
2017-09-30T02:40:36.460Z,20.28
2017-09-30T02:41:17.020Z,20.2
2017-09-30T02:41:57.561Z,20.26
2017-09-30T02:42:38.115Z,20.31
2017-09-30T02:43:18.671Z,20.32
2017-09-30T02:43:59.225Z,20.2
2017-09-30T02:44:39.731Z,20.17
2017-09-30T02:45:20.305Z,20.26
2017-09-30T02:46:00.859Z,20.23
2017-09-30T02:46:41.389Z,20.2
2017-09-30T02:47:21.909Z,20.17
2017-09-30T02:48:02.539Z,20.17
2017-09-30T02:48:43.112Z,20.23
2017-09-30T02:49:23.634Z,20.23
2017-09-30T02:50:04.168Z,20.23
2017-09-30T02:50:44.702Z,20.28
2017-09-30T02:51:25.205Z,20.2
2017-09-30T02:52:05.851Z,20.28
2017-09-30T02:52:46.367Z,20.21
2017-09-30T02:53:26.924Z,20.16
2017-09-30T02:54:07.480Z,20.29
2017-09-30T02:54:48.021Z,20.2
2017-09-30T02:55:28.658Z,20.2
2017-09-30T02:56:09.177Z,20.2
2017-09-30T02:56:49.709Z,20.26
2017-09-30T02:57:30.324Z,20.26
2017-09-30T02:58:10.889Z,20.28
2017-09-30T02:58:51.378Z,20.28
2017-09-30T02:59:31.944Z,20.31
2017-09-30T03:00:12.484Z,20.38
2017-09-30T03:00:53.049Z,20.36
2017-09-30T03:01:33.768Z,20.33
2017-09-30T03:02:14.286Z,20.38
2017-09-30T03:02:54.841Z,20.32
2017-09-30T03:03:35.327Z,20.32
2017-09-30T03:04:15.901Z,20.35
2017-09-30T03:04:56.436Z,20.2
2017-09-30T03:05:36.980Z,20.29
2017-09-30T03:06:17.574Z,20.28
2017-09-30T03:06:58.009Z,20.35
2017-09-30T03:07:38.584Z,20.21
2017-09-30T03:08:19.065Z,20.28
2017-09-30T03:08:59.669Z,20.03
2017-09-30T03:09:40.221Z,20.16
2017-09-30T03:10:20.810Z,20.11
2017-09-30T03:11:01.311Z,20.13
2017-09-30T03:11:41.908Z,20.16
2017-09-30T03:12:22.457Z,20.17
2017-09-30T03:13:03.046Z,20.26
2017-09-30T03:13:43.581Z,20.28
2017-09-30T03:14:24.163Z,20.14
2017-09-30T03:15:04.623Z,20.21
2017-09-30T03:15:45.185Z,20.21
2017-09-30T03:16:25.761Z,20.23
2017-09-30T03:17:06.302Z,20.31
2017-09-30T03:17:46.853Z,20.33
2017-09-30T03:18:27.449Z,20.26
2017-09-30T03:19:07.970Z,20.29
2017-09-30T03:19:48.484Z,20.26
2017-09-30T03:20:29.057Z,20.17
2017-09-30T03:21:09.578Z,20.16
2017-09-30T03:21:50.154Z,20.29
2017-09-30T03:22:30.659Z,20.18
2017-09-30T03:23:11.219Z,20.2
2017-09-30T03:23:51.764Z,20.16
2017-09-30T03:24:32.332Z,20.23
2017-09-30T03:25:12.896Z,20.26
2017-09-30T03:25:53.407Z,20.28
2017-09-30T03:26:34.166Z,20.16
2017-09-30T03:27:14.719Z,20.16
2017-09-30T03:27:55.304Z,20.29
2017-09-30T03:28:35.854Z,20.24
2017-09-30T03:29:16.407Z,20.23
2017-09-30T03:29:56.923Z,20.13
2017-09-30T03:30:37.477Z,20.16
2017-09-30T03:31:18.056Z,20.24
2017-09-30T03:31:58.542Z,20.21
2017-09-30T03:32:39.125Z,20.28
2017-09-30T03:33:19.798Z,20.26
2017-09-30T03:34:00.360Z,20.17
2017-09-30T03:34:40.938Z,20.17
2017-09-30T03:35:21.884Z,20.2
2017-09-30T03:36:02.405Z,20.13
2017-09-30T03:36:42.908Z,20.16
2017-09-30T03:37:23.520Z,20.16
2017-09-30T03:38:04.031Z,20.08
2017-09-30T03:38:44.555Z,20.02
2017-09-30T03:39:25.061Z,19.96
2017-09-30T03:40:05.640Z,19.95
2017-09-30T03:40:46.138Z,19.98
2017-09-30T03:41:26.721Z,19.92
2017-09-30T03:42:07.253Z,19.98
2017-09-30T03:42:47.776Z,19.92
2017-09-30T03:43:28.275Z,19.95
2017-09-30T03:44:08.847Z,19.92
2017-09-30T03:44:49.372Z,20.06
2017-09-30T03:45:30.018Z,20.11
2017-09-30T03:46:10.508Z,20.11
2017-09-30T03:46:51.065Z,20.13
2017-09-30T03:47:31.599Z,20.13
2017-09-30T03:48:12.146Z,20.18
2017-09-30T03:48:52.694Z,20.2
2017-09-30T03:49:33.220Z,20.08
2017-09-30T03:50:13.744Z,20.13
2017-09-30T03:50:54.288Z,20.17
2017-09-30T03:51:34.845Z,20.29
2017-09-30T03:52:15.452Z,20.13
2017-09-30T03:52:55.968Z,20.2
2017-09-30T03:53:36.512Z,20.17
2017-09-30T03:55:24.665Z,20.28
2017-09-30T03:56:05.181Z,20.17
2017-09-30T03:56:45.647Z,20.28
2017-09-30T03:57:26.269Z,20.21
2017-09-30T03:58:06.866Z,20.21
2017-09-30T03:58:47.454Z,20.21
2017-09-30T03:59:27.943Z,20.2
2017-09-30T04:00:08.481Z,20.14
2017-09-30T04:00:49.001Z,20.06
2017-09-30T04:01:29.562Z,20.16
2017-09-30T04:02:10.103Z,20.03
2017-09-30T04:02:50.667Z,20.2
2017-09-30T04:03:31.226Z,20.02
2017-09-30T04:04:11.799Z,20.14
2017-09-30T04:04:52.376Z,20.11
2017-09-30T04:05:32.904Z,20.16
2017-09-30T04:06:13.510Z,20.05
2017-09-30T04:06:54.080Z,20.1
2017-09-30T04:07:34.551Z,20.05
2017-09-30T04:08:15.107Z,20.13
2017-09-30T04:08:55.656Z,20.03
2017-09-30T04:09:36.183Z,20.11
2017-09-30T04:10:16.760Z,20.14
2017-09-30T04:10:57.225Z,20.16
2017-09-30T04:11:37.821Z,20.03
2017-09-30T04:12:18.300Z,20.11
2017-09-30T04:12:58.859Z,20.05
2017-09-30T04:13:39.402Z,20.08
2017-09-30T04:14:19.966Z,20.1
2017-09-30T04:15:00.576Z,20.11
2017-09-30T04:15:41.049Z,19.92
2017-09-30T04:16:21.621Z,19.99
2017-09-30T04:17:02.179Z,19.98
2017-09-30T04:17:42.727Z,19.96
2017-09-30T04:18:23.274Z,19.92
2017-09-30T04:19:03.773Z,20.11
2017-09-30T04:19:44.356Z,20.14
2017-09-30T04:20:25.014Z,20.08
2017-09-30T04:21:05.456Z,20.02
2017-09-30T04:21:46.019Z,20.06
2017-09-30T04:22:26.581Z,19.91
2017-09-30T04:23:07.082Z,19.92
2017-09-30T04:23:47.603Z,19.95
2017-09-30T04:24:28.204Z,19.88
2017-09-30T04:25:08.740Z,19.88
2017-09-30T04:25:49.396Z,19.94
2017-09-30T04:26:29.881Z,19.99
2017-09-30T04:27:10.400Z,19.96
2017-09-30T04:27:50.965Z,19.98
2017-09-30T04:28:31.449Z,19.99
2017-09-30T04:29:12.098Z,20.06
2017-09-30T04:29:52.617Z,20.02
2017-09-30T04:30:33.223Z,19.95
2017-09-30T04:31:13.756Z,20.08
2017-09-30T04:31:54.318Z,19.99
2017-09-30T04:32:34.899Z,19.96
2017-09-30T04:33:15.474Z,20.02
2017-09-30T04:33:56.032Z,19.95
2017-09-30T04:34:36.581Z,20.03
2017-09-30T04:35:17.149Z,20.06
2017-09-30T04:35:57.612Z,19.96
2017-09-30T04:36:38.129Z,19.99
2017-09-30T04:37:18.717Z,19.94
2017-09-30T04:37:59.245Z,19.92
2017-09-30T04:38:39.793Z,19.91
2017-09-30T04:39:20.536Z,19.87
2017-09-30T04:40:00.959Z,19.92
2017-09-30T04:40:41.469Z,19.99
2017-09-30T04:41:22.012Z,19.94
2017-09-30T04:42:02.504Z,19.94
2017-09-30T04:42:43.072Z,19.83
2017-09-30T04:43:23.638Z,19.87
2017-09-30T04:44:04.155Z,19.88
2017-09-30T04:44:44.680Z,19.99
2017-09-30T04:45:25.217Z,19.88
2017-09-30T04:46:05.732Z,19.88
2017-09-30T04:48:19.284Z,19.92
2017-09-30T04:48:59.793Z,19.96
2017-09-30T04:49:40.306Z,19.95
2017-09-30T04:50:20.917Z,19.88
2017-09-30T04:51:01.422Z,19.95
2017-09-30T04:51:41.977Z,19.91
2017-09-30T04:52:22.493Z,19.98
2017-09-30T04:53:03.040Z,19.95
2017-09-30T04:53:43.597Z,19.94
2017-09-30T04:54:24.188Z,19.98
2017-09-30T04:55:04.700Z,19.95
2017-09-30T04:55:45.718Z,19.91
2017-09-30T04:56:26.303Z,19.91
2017-09-30T04:57:06.906Z,19.94
2017-09-30T04:57:47.405Z,19.98
2017-09-30T04:58:27.912Z,19.87
2017-09-30T04:59:08.475Z,19.96
2017-09-30T04:59:48.969Z,19.98
2017-09-30T05:00:29.634Z,19.91
2017-09-30T05:01:10.143Z,19.95
2017-09-30T05:01:50.697Z,19.94
2017-09-30T05:02:31.288Z,19.96
2017-09-30T05:03:11.869Z,19.95
2017-09-30T05:03:52.414Z,19.96
2017-09-30T05:04:32.983Z,19.92
2017-09-30T05:05:13.448Z,19.87
2017-09-30T05:05:54.069Z,19.76
2017-09-30T05:06:34.578Z,19.87
2017-09-30T05:07:15.105Z,19.8
2017-09-30T05:07:55.654Z,19.83
2017-09-30T05:08:36.262Z,19.88
2017-09-30T05:09:16.761Z,19.95
2017-09-30T05:09:57.317Z,19.8
2017-09-30T05:10:37.931Z,19.96
2017-09-30T05:11:18.555Z,19.92
2017-09-30T05:11:59.029Z,19.87
2017-09-30T05:12:39.597Z,19.95
2017-09-30T05:13:20.133Z,19.81
2017-09-30T05:14:00.681Z,19.94
2017-09-30T05:14:41.244Z,19.87
2017-09-30T05:15:21.939Z,19.71
2017-09-30T05:16:02.621Z,19.78
2017-09-30T05:16:43.166Z,19.76
2017-09-30T05:17:23.662Z,19.84
2017-09-30T05:18:04.229Z,19.86
2017-09-30T05:18:44.790Z,19.83
2017-09-30T05:19:25.365Z,19.83
2017-09-30T05:20:05.932Z,19.84
2017-09-30T05:20:46.422Z,19.84
2017-09-30T05:21:26.920Z,19.87
2017-09-30T05:22:07.522Z,19.91
2017-09-30T05:22:48.020Z,19.92
2017-09-30T05:23:28.578Z,19.88
2017-09-30T05:24:09.118Z,19.87
2017-09-30T05:24:49.673Z,19.87
2017-09-30T05:25:30.187Z,19.84
2017-09-30T05:26:10.725Z,19.87
2017-09-30T05:26:51.299Z,19.91
2017-09-30T05:27:31.821Z,19.83
2017-09-30T05:28:12.411Z,19.84
2017-09-30T05:28:52.990Z,19.84
2017-09-30T05:29:33.490Z,19.77
2017-09-30T05:30:13.974Z,19.76
2017-09-30T05:30:54.543Z,19.69
2017-09-30T05:31:35.112Z,19.71
2017-09-30T05:32:15.557Z,19.77
2017-09-30T05:32:56.141Z,19.74
2017-09-30T05:33:37.574Z,19.71
2017-09-30T05:34:18.135Z,19.74
2017-09-30T05:34:58.746Z,19.74
2017-09-30T05:35:39.325Z,19.66
2017-09-30T05:36:19.844Z,19.77
2017-09-30T05:37:00.391Z,19.69
2017-09-30T05:37:41.056Z,19.65
2017-09-30T05:38:21.686Z,19.74
2017-09-30T05:39:02.210Z,19.74
2017-09-30T05:41:18.500Z,19.81
2017-09-30T05:41:58.658Z,19.83
2017-09-30T05:42:39.207Z,19.87
2017-09-30T05:43:19.799Z,19.94
2017-09-30T05:44:00.406Z,19.86
2017-09-30T05:44:40.938Z,19.95
2017-09-30T05:45:21.529Z,19.88
2017-09-30T05:46:02.095Z,19.81
2017-09-30T05:46:42.611Z,19.88
2017-09-30T05:47:23.179Z,19.84
2017-09-30T05:48:03.764Z,19.81
2017-09-30T05:48:44.291Z,19.91
2017-09-30T05:49:24.835Z,19.98
2017-09-30T05:50:05.412Z,19.94
2017-09-30T05:50:45.980Z,20.06
2017-09-30T05:51:26.479Z,20.11
2017-09-30T05:52:07.086Z,20.06
2017-09-30T05:52:47.596Z,20.16
2017-09-30T05:53:28.137Z,20.06
2017-09-30T05:54:10.672Z,20.08
2017-09-30T05:54:51.239Z,19.96
2017-09-30T05:55:31.840Z,19.96
2017-09-30T05:56:12.390Z,20.06
2017-09-30T05:56:52.935Z,20.11
2017-09-30T05:57:33.465Z,20.1
2017-09-30T05:58:14.132Z,20.02
2017-09-30T05:58:54.626Z,20.13
2017-09-30T05:59:35.652Z,20.13
2017-09-30T06:00:15.946Z,20.23
2017-09-30T06:00:56.581Z,20.16
2017-09-30T06:01:37.198Z,20.2
2017-09-30T06:02:17.784Z,20.23
2017-09-30T06:02:58.349Z,20.21
2017-09-30T06:03:38.971Z,20.17
2017-09-30T06:04:19.537Z,20.11
2017-09-30T06:06:18.685Z,20.13
2017-09-30T06:06:59.253Z,20.16
2017-09-30T06:07:39.792Z,20.26
2017-09-30T06:08:20.362Z,20.32
2017-09-30T06:09:00.922Z,20.39
2017-09-30T06:09:41.424Z,20.33
2017-09-30T06:10:21.965Z,20.32
2017-09-30T06:11:02.549Z,20.41
2017-09-30T06:11:43.020Z,20.41
2017-09-30T06:12:23.573Z,20.42
2017-09-30T06:13:04.119Z,20.36
2017-09-30T06:13:44.643Z,20.39
2017-09-30T06:14:25.201Z,20.38
2017-09-30T06:15:05.744Z,20.47
2017-09-30T06:15:46.343Z,20.33
2017-09-30T06:16:26.861Z,20.33
2017-09-30T06:17:07.332Z,20.31
2017-09-30T06:17:47.907Z,20.36
2017-09-30T06:18:28.410Z,20.35
2017-09-30T06:19:08.906Z,20.42
2017-09-30T06:19:50.200Z,20.5
2017-09-30T06:20:30.770Z,20.39
2017-09-30T06:21:11.367Z,20.39
2017-09-30T06:21:51.897Z,20.41
2017-09-30T06:22:32.361Z,20.54
2017-09-30T06:23:12.944Z,20.5
2017-09-30T06:23:54.177Z,20.43
2017-09-30T06:24:34.097Z,20.51
2017-09-30T06:25:14.683Z,20.5
2017-09-30T06:25:55.263Z,20.57
2017-09-30T06:26:35.841Z,20.54
2017-09-30T06:27:17.062Z,20.48
2017-09-30T06:27:57.619Z,20.47
2017-09-30T06:28:38.138Z,20.42
2017-09-30T06:29:19.010Z,20.48
2017-09-30T06:29:59.565Z,20.58
2017-09-30T06:30:40.171Z,20.57
2017-09-30T06:31:20.721Z,20.57
2017-09-30T06:32:01.193Z,20.59
2017-09-30T06:32:41.737Z,20.55
2017-09-30T06:33:22.384Z,20.58
2017-09-30T06:34:02.799Z,20.55
2017-09-30T06:34:43.393Z,20.61
2017-09-30T06:35:23.930Z,20.57
2017-09-30T06:36:04.459Z,20.59
2017-09-30T06:36:45.195Z,20.55
2017-09-30T06:37:25.792Z,20.52
2017-09-30T06:38:06.339Z,20.62
2017-09-30T06:38:46.878Z,20.52
2017-09-30T06:39:27.365Z,20.61
2017-09-30T06:40:07.949Z,20.64
2017-09-30T06:40:48.536Z,20.73
2017-09-30T06:41:29.087Z,20.82
2017-09-30T06:42:09.734Z,20.87
2017-09-30T06:42:50.506Z,20.85
2017-09-30T06:43:31.049Z,20.88
2017-09-30T06:44:11.659Z,20.95
2017-09-30T06:44:52.155Z,20.88
2017-09-30T06:45:32.719Z,20.85
2017-09-30T06:46:13.381Z,20.82
2017-09-30T06:46:53.987Z,20.69
2017-09-30T06:47:34.698Z,20.8
2017-09-30T06:48:15.270Z,20.82
2017-09-30T06:48:55.807Z,20.67
2017-09-30T06:49:36.345Z,20.73
2017-09-30T06:50:16.893Z,20.73
2017-09-30T06:50:58.372Z,20.73
2017-09-30T06:51:37.966Z,20.74
2017-09-30T06:52:18.854Z,20.73
2017-09-30T06:52:59.461Z,20.76
2017-09-30T06:53:39.949Z,20.58
2017-09-30T06:54:20.496Z,20.72
2017-09-30T06:55:01.333Z,20.74
2017-09-30T06:55:59.347Z,20.67
2017-09-30T06:56:41.114Z,20.72
2017-09-30T06:57:21.679Z,20.57
2017-09-30T06:58:02.254Z,20.62
2017-09-30T06:58:42.856Z,20.54
2017-09-30T06:59:23.393Z,20.59
2017-09-30T07:00:03.957Z,20.58
2017-09-30T07:00:44.509Z,20.58
2017-09-30T07:01:25.112Z,20.55
2017-09-30T07:02:05.654Z,20.59
2017-09-30T07:02:46.177Z,20.61
2017-09-30T07:03:26.696Z,20.55
2017-09-30T07:04:07.256Z,20.58
2017-09-30T07:04:47.815Z,20.61
2017-09-30T07:05:28.361Z,20.58
2017-09-30T07:06:08.946Z,20.61
2017-09-30T07:06:49.473Z,20.59
2017-09-30T07:07:30.016Z,20.64
2017-09-30T07:08:10.631Z,20.67
2017-09-30T07:08:51.182Z,20.61
2017-09-30T07:09:31.667Z,20.73
2017-09-30T07:10:12.283Z,20.73
2017-09-30T07:10:52.828Z,20.72
2017-09-30T07:11:33.306Z,20.79
2017-09-30T07:12:13.922Z,20.82
2017-09-30T07:12:54.452Z,20.92
2017-09-30T07:13:35.054Z,20.99
2017-09-30T07:14:15.604Z,20.95
2017-09-30T07:14:56.195Z,20.88
2017-09-30T07:15:36.744Z,20.88
2017-09-30T07:16:17.393Z,20.87
2017-09-30T07:16:57.760Z,20.79
2017-09-30T07:17:38.365Z,20.87
2017-09-30T07:18:19.788Z,20.85
2017-09-30T07:19:00.312Z,20.88
2017-09-30T07:19:40.915Z,20.94
2017-09-30T07:20:21.451Z,20.87
2017-09-30T07:21:01.991Z,20.89
2017-09-30T07:21:42.539Z,20.89
2017-09-30T07:22:23.126Z,20.87
2017-09-30T07:23:03.644Z,20.92
2017-09-30T07:23:44.206Z,20.92
2017-09-30T07:24:24.794Z,20.88
2017-09-30T07:25:05.374Z,20.98
2017-09-30T07:27:18.634Z,21.04
2017-09-30T07:27:59.205Z,21.01
2017-09-30T07:28:39.770Z,21.03
2017-09-30T07:29:20.285Z,20.98
2017-09-30T07:30:00.853Z,20.92
2017-09-30T07:30:41.393Z,20.89
2017-09-30T07:31:21.912Z,20.94
2017-09-30T07:32:02.511Z,20.97
2017-09-30T07:32:42.985Z,20.95
2017-09-30T07:33:23.563Z,20.99
2017-09-30T07:34:04.092Z,20.98
2017-09-30T07:34:44.655Z,20.79
2017-09-30T07:35:25.385Z,20.87
2017-09-30T07:36:05.943Z,20.91
2017-09-30T07:36:46.546Z,20.94
2017-09-30T07:37:27.037Z,20.91
2017-09-30T07:38:07.604Z,20.94
2017-09-30T07:38:48.163Z,20.88
2017-09-30T07:39:28.681Z,20.82
2017-09-30T07:40:09.236Z,20.85
2017-09-30T07:40:49.770Z,20.87
2017-09-30T07:41:30.385Z,20.88
2017-09-30T07:42:10.890Z,21.04
2017-09-30T07:42:51.435Z,21.13
2017-09-30T07:43:32.048Z,21.07
2017-09-30T07:44:12.559Z,21.19
2017-09-30T07:44:53.161Z,21.04
2017-09-30T07:45:33.687Z,21.03
2017-09-30T07:46:14.206Z,20.99
2017-09-30T07:46:54.770Z,20.99
2017-09-30T07:47:35.269Z,21.09
2017-09-30T07:48:15.936Z,21.09
2017-09-30T07:48:56.568Z,21.13
2017-09-30T07:49:37.124Z,21.09
2017-09-30T07:50:17.614Z,21.1
2017-09-30T07:50:58.178Z,21.1
2017-09-30T07:51:38.733Z,21.07
2017-09-30T07:52:19.284Z,21.04
2017-09-30T07:52:59.821Z,20.98
2017-09-30T07:53:40.395Z,20.95
2017-09-30T07:54:21.877Z,20.95
2017-09-30T07:55:02.424Z,20.95
2017-09-30T07:55:43.011Z,21.09
2017-09-30T07:56:23.511Z,21.1
2017-09-30T07:57:04.034Z,21.16
2017-09-30T07:57:44.643Z,21.09
2017-09-30T07:58:25.169Z,21.28
2017-09-30T07:59:05.689Z,21.34
2017-09-30T07:59:46.246Z,21.31
2017-09-30T08:00:26.756Z,21.31
2017-09-30T08:01:07.360Z,21.35
2017-09-30T08:01:47.874Z,21.37
2017-09-30T08:02:28.449Z,21.44
2017-09-30T08:03:09.019Z,21.52
2017-09-30T08:03:49.703Z,21.44
2017-09-30T08:04:30.235Z,21.65
2017-09-30T08:05:10.821Z,21.69
2017-09-30T08:05:51.369Z,21.69
2017-09-30T08:06:31.995Z,21.72
2017-09-30T08:07:12.526Z,21.72
2017-09-30T08:07:53.101Z,21.67
2017-09-30T08:08:33.566Z,21.67
2017-09-30T08:09:14.185Z,21.75
2017-09-30T08:09:54.738Z,21.74
2017-09-30T08:10:35.349Z,21.68
2017-09-30T08:11:15.949Z,21.74
2017-09-30T08:11:56.567Z,21.82
2017-09-30T08:12:37.050Z,21.82
2017-09-30T08:13:17.620Z,21.82
2017-09-30T08:13:58.286Z,21.72
2017-09-30T08:14:38.805Z,21.74
2017-09-30T08:15:19.350Z,21.8
2017-09-30T08:15:59.959Z,21.8
2017-09-30T08:16:40.470Z,21.82
2017-09-30T08:17:20.990Z,21.75
2017-09-30T08:18:01.549Z,21.82
2017-09-30T08:18:42.046Z,21.72
2017-09-30T08:19:22.578Z,21.79
2017-09-30T08:20:03.184Z,21.75
2017-09-30T08:20:43.732Z,21.62
2017-09-30T08:21:24.268Z,21.52
2017-09-30T08:22:04.774Z,21.5
2017-09-30T08:22:45.366Z,21.49
2017-09-30T08:23:25.920Z,21.46
2017-09-30T08:24:06.501Z,21.47
2017-09-30T08:24:47.314Z,21.49
2017-09-30T08:25:27.870Z,21.56
2017-09-30T08:26:08.457Z,21.5
2017-09-30T08:26:48.966Z,21.62
2017-09-30T08:27:29.530Z,21.5
2017-09-30T08:28:10.126Z,21.65
2017-09-30T08:28:50.560Z,21.56
2017-09-30T08:29:31.203Z,21.67
2017-09-30T08:30:11.714Z,21.71
2017-09-30T08:30:52.257Z,21.71
2017-09-30T08:31:32.857Z,21.82
2017-09-30T08:32:13.370Z,21.68
2017-09-30T08:32:53.902Z,21.82
2017-09-30T08:33:34.467Z,21.83
2017-09-30T08:34:14.995Z,21.82
2017-09-30T08:34:55.669Z,21.83
2017-09-30T08:35:36.226Z,21.84
2017-09-30T08:36:16.753Z,21.94
2017-09-30T08:36:57.363Z,21.96
2017-09-30T08:37:37.894Z,21.96
2017-09-30T08:38:18.477Z,21.82
2017-09-30T08:38:58.982Z,21.92
2017-09-30T08:39:39.591Z,21.9
2017-09-30T08:40:20.182Z,21.91
2017-09-30T08:41:00.736Z,21.72
2017-09-30T08:41:41.265Z,21.77
2017-09-30T08:42:21.816Z,21.77
2017-09-30T08:43:02.390Z,21.68
2017-09-30T08:43:42.954Z,21.77
2017-09-30T08:44:23.463Z,21.86
2017-09-30T08:45:04.001Z,21.75
2017-09-30T08:45:44.551Z,21.86
2017-09-30T08:46:25.088Z,21.91
2017-09-30T08:47:05.653Z,21.92
2017-09-30T08:47:46.203Z,21.88
2017-09-30T08:48:26.759Z,21.91
2017-09-30T08:49:07.343Z,21.77
2017-09-30T08:49:48.000Z,21.92
2017-09-30T08:50:28.604Z,21.98
2017-09-30T08:51:09.189Z,21.94
2017-09-30T08:51:49.703Z,21.9
2017-09-30T08:52:30.241Z,21.99
2017-09-30T08:53:10.879Z,21.94
2017-09-30T08:53:51.447Z,21.98